Mount Liberty, Ohio
Current Conditions -  °F | °C
As of 3:16 PM on Saturday 25 Oct 2014 (Local Time) from K4I3 Reporting Station
Clear Clear  
Wind Chill: 70°   Ceiling: Unl
Heat Index: 70°   Visibility: 10mi
Dew Point: 54°   Wind: 12mph
Humidity: 56%   Direction: 250°WSW
Pressure: 29.84"   Gusts: 21mph
Location:  40.35°N, 82.63°W
Report Text: K4I3 251916Z AUTO 25010G18KT 10SM CLR 21/12 A2984 RMK AO2
Loading
Personal Weather Stations






























Interactive Weather Map
Tropical Storm Tracking
New forecast layout! Learn more

10-Day Weather Forecast

Advertisements
Track Severe Weather on mobile